首页
METAR-TAF:

METAR-TAF

机场 :

Resia Pass, 意大利

纬度: 46-50N, 经度: 010-30E, 海拔: 1800米

当前天气观测

该预报发布于1小时和3分钟前的12:55 UTC
风速9节,风向南转南东,有时为19节阵风
温度 9°C
湿度 71%
气压 1022 hPa
能見度: 9000

METAR: LIVE 211255Z 16009G19KT 9000 NSC 09/04 Q1022 RMK BKN BKN180 VIS MIN 9000

时间: 15:58 (13:58 UTC)


TAF: 丢失

超过4000个机场的气象观测和天气预报(METAR&TAF报告)。

可查询的气象台以黄色和红色小点在地图上表示。

将鼠标移到小点上方,可查看气象台名称。

然后点击查看天气观测和预报。

如需切换地图:点击带黑十字的绿色按钮放大地图;点击带横线的绿色按钮缩小地图;或者点击绿色箭头查看邻近地区的地图。


METAR-TAF: